Time;durP1;ratioP1;P1;durP2;ratioP2;P2;SDS_P1;SDS_P2;PMS_P1;PMS_P2;Temp;Humidity;BMP_temperature;BMP_pressure;BME280_temperature;BME280_humidity;BME280_pressure;Samples;Min_cycle;Max_cycle;Signal;HPM_P1;HPM_P2
2023/05/27 00:00:08;;;;;;;12.60;2.92;;;14.00;56.90;;;;;;5034790;28;20094;-67
2023/05/27 00:02:33;;;;;;;12.95;3.00;;;14.10;57.10;;;;;;5045582;28;20101;-67
2023/05/27 00:04:59;;;;;;;10.32;2.85;;;14.00;57.00;;;;;;5047064;28;20094;-67
2023/05/27 00:07:25;;;;;;;14.38;3.78;;;14.10;57.10;;;;;;5035979;28;20059;-68
2023/05/27 00:09:51;;;;;;;9.95;3.00;;;14.10;57.20;;;;;;5049786;28;20028;-67
2023/05/27 00:12:17;;;;;;;11.70;3.15;;;14.00;57.20;;;;;;5036958;28;20027;-67
2023/05/27 00:14:43;;;;;;;9.77;2.70;;;14.00;57.40;;;;;;5030491;28;20067;-67
2023/05/27 00:17:09;;;;;;;11.40;3.58;;;14.00;57.50;;;;;;5034921;28;20023;-67
2023/05/27 00:19:35;;;;;;;13.20;3.50;;;13.90;57.50;;;;;;5016756;28;20441;-67
2023/05/27 00:22:01;;;;;;;9.05;2.72;;;13.90;58.20;;;;;;5036287;28;20087;-67
2023/05/27 00:24:28;;;;;;;10.13;3.35;;;13.90;57.60;;;;;;5039626;28;20026;-68
2023/05/27 00:26:54;;;;;;;9.68;3.33;;;13.90;57.70;;;;;;5022358;28;20040;-67
2023/05/27 00:29:19;;;;;;;10.68;2.92;;;13.80;57.80;;;;;;5010130;28;20025;-67
2023/05/27 00:31:45;;;;;;;9.20;3.08;;;13.80;57.90;;;;;;5027056;28;20090;-67
2023/05/27 00:34:11;;;;;;;12.63;3.05;;;13.80;58.10;;;;;;5033410;28;20047;-67
2023/05/27 00:36:37;;;;;;;10.55;3.15;;;13.80;58.10;;;;;;5019799;28;20029;-67
2023/05/27 00:39:05;;;;;;;12.80;3.10;;;13.70;58.10;;;;;;5038108;28;20036;-67
2023/05/27 00:41:31;;;;;;;11.15;3.53;;;13.70;58.20;;;;;;5028966;28;20025;-67
2023/05/27 00:43:57;;;;;;;9.98;3.45;;;13.70;58.20;;;;;;5030599;28;20509;-67
2023/05/27 00:46:23;;;;;;;14.20;3.60;;;13.70;58.30;;;;;;5027470;28;20421;-67
2023/05/27 00:48:49;;;;;;;12.13;3.67;;;13.70;58.40;;;;;;5044202;28;20032;-67
2023/05/27 00:51:15;;;;;;;9.25;3.08;;;13.70;58.50;;;;;;5032411;28;20045;-67
2023/05/27 00:53:44;;;;;;;14.38;3.58;;;13.60;58.50;;;;;;5052277;28;20469;-68
2023/05/27 00:56:11;;;;;;;10.20;3.28;;;13.60;58.60;;;;;;5042877;28;20128;-67
2023/05/27 00:58:37;;;;;;;10.80;3.30;;;13.60;58.60;;;;;;5048306;28;20040;-67
2023/05/27 01:01:04;;;;;;;10.25;3.25;;;13.50;58.60;;;;;;5029089;28;20022;-67
2023/05/27 01:03:34;;;;;;;9.80;2.72;;;13.60;58.70;;;;;;5028675;28;20013;-67
2023/05/27 01:06:14;;;;;;;7.88;3.33;;;13.60;58.80;;;;;;5051812;28;20391;-67
2023/05/27 01:09:04;;;;;;;12.95;3.83;;;13.50;58.90;;;;;;5036261;28;20025;-67
2023/05/27 01:11:37;;;;;;;13.13;3.22;;;13.50;59.00;;;;;;5043006;28;20358;-67
2023/05/27 01:14:10;;;;;;;13.45;3.58;;;13.50;59.10;;;;;;5028078;28;20441;-67
2023/05/27 01:16:43;;;;;;;10.07;2.88;;;13.40;59.10;;;;;;5055734;28;20032;-67
2023/05/27 01:19:14;;;;;;;8.48;2.95;;;13.40;59.20;;;;;;5016404;28;20096;-67
2023/05/27 01:21:47;;;;;;;9.40;3.53;;;13.40;59.30;;;;;;5042200;28;20462;-67
2023/05/27 01:24:13;;;;;;;12.82;3.38;;;13.40;59.40;;;;;;5031619;28;20021;-67
2023/05/27 01:26:39;;;;;;;10.77;3.63;;;13.40;59.40;;;;;;5029394;28;20121;-67
2023/05/27 01:29:06;;;;;;;10.95;3.33;;;13.40;59.50;;;;;;5033469;28;20033;-67
2023/05/27 01:31:41;;;;;;;9.77;3.30;;;13.40;59.60;;;;;;5035381;28;20022;-67
2023/05/27 01:34:09;;;;;;;12.18;4.07;;;13.30;59.60;;;;;;5034741;28;20026;-67
2023/05/27 01:36:48;;;;;;;9.70;3.28;;;13.30;59.60;;;;;;5017278;28;20022;-67
2023/05/27 01:39:15;;;;;;;11.48;3.58;;;13.30;59.70;;;;;;5033020;28;20029;-67
2023/05/27 01:41:42;;;;;;;12.52;3.70;;;13.30;59.80;;;;;;5027834;28;20013;-67
2023/05/27 01:44:17;;;;;;;10.73;3.15;;;13.30;59.90;;;;;;5033744;28;20018;-67
2023/05/27 01:46:43;;;;;;;13.48;3.70;;;13.20;59.90;;;;;;5029118;28;20017;-67
2023/05/27 01:49:09;;;;;;;12.40;3.35;;;13.20;60.00;;;;;;5028161;28;20030;-67
2023/05/27 01:51:36;;;;;;;14.48;3.55;;;13.20;60.10;;;;;;5026453;28;20375;-67
2023/05/27 01:54:03;;;;;;;11.20;3.03;;;13.20;60.10;;;;;;5014961;28;20021;-67
2023/05/27 01:56:29;;;;;;;9.93;3.53;;;13.20;60.30;;;;;;5027363;28;20121;-67
2023/05/27 01:58:55;;;;;;;11.40;3.63;;;13.20;60.30;;;;;;5012441;28;20045;-67
2023/05/27 02:01:24;;;;;;;12.10;3.30;;;13.20;60.50;;;;;;5012016;28;20995;-67
2023/05/27 02:03:51;;;;;;;11.50;3.88;;;13.10;60.50;;;;;;5025825;28;20013;-67
2023/05/27 02:06:17;;;;;;;11.65;3.72;;;13.10;60.50;;;;;;5029916;28;20024;-67
2023/05/27 02:08:43;;;;;;;10.68;2.95;;;13.10;60.60;;;;;;5023708;28;20453;-67
2023/05/27 02:11:09;;;;;;;12.38;3.85;;;13.10;60.70;;;;;;5012761;28;20025;-67
2023/05/27 02:13:36;;;;;;;11.07;3.45;;;13.10;60.70;;;;;;5023242;28;20033;-67
2023/05/27 02:16:02;;;;;;;13.00;3.78;;;13.10;60.80;;;;;;5029944;28;20036;-67
2023/05/27 02:18:28;;;;;;;10.40;3.40;;;13.10;60.90;;;;;;5029717;28;20026;-67
2023/05/27 02:20:53;;;;;;;11.25;3.03;;;13.00;60.90;;;;;;5029435;28;20089;-67
2023/05/27 02:23:19;;;;;;;14.20;4.43;;;13.10;61.20;;;;;;5019357;28;20479;-67
2023/05/27 02:25:45;;;;;;;12.50;4.03;;;13.00;61.00;;;;;;5029455;28;20358;-67
2023/05/27 02:28:11;;;;;;;11.55;3.63;;;13.00;61.10;;;;;;5021168;28;20025;-67
2023/05/27 02:30:38;;;;;;;13.60;3.50;;;13.00;61.10;;;;;;5027710;28;20052;-67
2023/05/27 02:33:03;;;;;;;10.98;3.30;;;13.00;61.20;;;;;;5016209;28;20052;-67
2023/05/27 02:35:29;;;;;;;10.90;4.07;;;12.90;61.20;;;;;;5016854;28;20029;-68
2023/05/27 02:37:55;;;;;;;10.55;3.40;;;12.90;61.40;;;;;;5021930;28;20030;-67
2023/05/27 02:40:26;;;;;;;12.25;4.03;;;12.90;61.50;;;;;;5031720;28;20021;-67
2023/05/27 02:42:53;;;;;;;13.32;3.75;;;12.90;61.60;;;;;;5005191;28;20436;-68
2023/05/27 02:45:19;;;;;;;12.32;3.58;;;12.80;61.60;;;;;;5028734;28;20112;-68
2023/05/27 02:47:45;;;;;;;12.10;3.63;;;12.90;61.70;;;;;;5014038;28;20053;-67
2023/05/27 02:50:11;;;;;;;14.18;3.75;;;12.80;61.80;;;;;;5028820;28;20044;-67
2023/05/27 02:52:37;;;;;;;10.00;3.80;;;12.80;62.00;;;;;;5016022;28;20029;-67
2023/05/27 02:55:03;;;;;;;13.98;3.85;;;12.80;62.10;;;;;;5006033;28;20112;-67
2023/05/27 02:57:31;;;;;;;10.48;3.40;;;12.70;62.10;;;;;;5030258;28;20079;-67
2023/05/27 02:59:57;;;;;;;9.50;3.22;;;12.70;62.20;;;;;;5032215;28;20427;-67
2023/05/27 03:02:23;;;;;;;9.90;3.63;;;12.70;62.30;;;;;;5020977;28;20033;-67
2023/05/27 03:04:49;;;;;;;11.95;3.45;;;12.70;62.30;;;;;;5028349;28;20041;-67
2023/05/27 03:07:15;;;;;;;10.15;3.08;;;12.60;62.40;;;;;;5032233;28;20033;-67
2023/05/27 03:09:41;;;;;;;10.25;3.50;;;12.60;63.10;;;;;;5028329;28;20440;-67
2023/05/27 03:12:07;;;;;;;12.50;3.30;;;12.60;62.60;;;;;;5030647;28;20033;-67
2023/05/27 03:14:33;;;;;;;12.15;4.50;;;12.60;62.60;;;;;;5034615;28;20346;-67
2023/05/27 03:16:58;;;;;;;11.02;3.72;;;12.50;62.70;;;;;;5034634;28;20026;-67
2023/05/27 03:19:24;;;;;;;10.02;3.30;;;12.60;62.80;;;;;;5033539;28;20095;-67
2023/05/27 03:21:51;;;;;;;12.15;4.18;;;12.50;62.80;;;;;;5025234;28;20116;-67
2023/05/27 03:24:17;;;;;;;10.05;3.75;;;12.50;62.80;;;;;;5016876;28;20041;-67
2023/05/27 03:26:43;;;;;;;10.63;3.53;;;12.50;62.80;;;;;;5032991;28;20030;-68
2023/05/27 03:29:09;;;;;;;17.35;4.35;;;12.50;62.90;;;;;;5031859;28;20074;-67
2023/05/27 03:31:35;;;;;;;12.25;4.43;;;12.50;62.90;;;;;;5028054;28;20322;-67
2023/05/27 03:34:06;;;;;;;13.05;3.60;;;12.60;63.00;;;;;;5024880;28;20480;-67
2023/05/27 03:36:32;;;;;;;13.23;4.13;;;12.50;62.80;;;;;;5027626;28;20045;-67
2023/05/27 03:38:58;;;;;;;14.90;4.13;;;12.60;62.90;;;;;;5012000;28;20021;-67
2023/05/27 03:41:25;;;;;;;10.70;3.47;;;12.60;62.90;;;;;;5026249;28;20036;-67
2023/05/27 03:43:51;;;;;;;13.65;3.72;;;12.60;63.00;;;;;;5030934;28;20100;-67
2023/05/27 03:46:17;;;;;;;13.57;3.67;;;12.50;62.90;;;;;;5026431;28;20073;-67
2023/05/27 03:48:43;;;;;;;14.02;3.90;;;12.60;63.00;;;;;;5026649;28;20111;-67
2023/05/27 03:51:10;;;;;;;13.88;3.33;;;12.60;63.00;;;;;;5042029;28;20046;-67
2023/05/27 03:53:36;;;;;;;11.65;3.08;;;12.50;63.00;;;;;;5014471;28;20087;-67
2023/05/27 03:56:03;;;;;;;12.77;3.45;;;12.50;63.00;;;;;;5031908;28;20454;-67
2023/05/27 03:58:29;;;;;;;11.77;3.45;;;12.50;63.10;;;;;;5029772;28;20029;-67
2023/05/27 04:00:55;;;;;;;13.30;3.60;;;12.50;63.20;;;;;;5023481;28;20026;-68
2023/05/27 04:03:21;;;;;;;12.75;3.25;;;12.50;63.30;;;;;;5021723;28;20133;-67
2023/05/27 04:05:48;;;;;;;10.60;2.95;;;12.50;63.30;;;;;;5033696;28;20100;-67
2023/05/27 04:08:14;;;;;;;11.00;4.03;;;12.50;63.30;;;;;;5023457;28;20118;-67
2023/05/27 04:10:40;;;;;;;10.43;3.40;;;12.50;63.30;;;;;;5031722;28;20359;-67
2023/05/27 04:13:06;;;;;;;10.50;3.15;;;12.50;63.30;;;;;;5001228;28;20079;-67
2023/05/27 04:15:33;;;;;;;9.13;3.45;;;12.50;63.30;;;;;;5032473;28;20052;-67
2023/05/27 04:17:59;;;;;;;11.80;3.80;;;12.50;63.30;;;;;;5026016;28;20147;-67
2023/05/27 04:20:35;;;;;;;10.77;3.28;;;12.50;63.40;;;;;;5008117;28;20021;-67
2023/05/27 04:23:01;;;;;;;11.93;3.72;;;12.50;63.40;;;;;;5000652;28;20185;-67
2023/05/27 04:25:27;;;;;;;10.63;3.60;;;12.60;63.40;;;;;;5026939;28;20106;-67
2023/05/27 04:28:04;;;;;;;8.85;3.15;;;12.50;63.40;;;;;;5000418;28;20030;-67
2023/05/27 04:30:31;;;;;;;12.25;3.85;;;12.60;63.40;;;;;;5027975;28;20083;-67
2023/05/27 04:33:01;;;;;;;11.98;3.75;;;12.50;63.30;;;;;;5030619;28;20044;-67
2023/05/27 04:35:30;;;;;;;10.07;3.45;;;12.60;63.40;;;;;;4982757;28;20037;-67
2023/05/27 04:37:58;;;;;;;12.63;3.88;;;12.60;63.40;;;;;;5014615;28;20113;-67
2023/05/27 04:40:26;;;;;;;11.88;3.60;;;12.60;63.50;;;;;;5029998;28;20037;-67
2023/05/27 04:43:16;;;;;;;11.80;3.88;;;12.60;63.50;;;;;;5031072;28;20059;-67
2023/05/27 04:45:43;;;;;;;11.55;3.25;;;12.60;63.40;;;;;;5035390;28;20454;-67
2023/05/27 04:48:10;;;;;;;14.45;3.95;;;12.60;63.50;;;;;;5026776;28;20071;-67
2023/05/27 04:50:36;;;;;;;15.80;3.28;;;12.60;63.60;;;;;;5035703;28;20057;-67
2023/05/27 04:53:02;;;;;;;10.38;3.60;;;12.60;63.60;;;;;;5023832;28;20022;-67
2023/05/27 04:55:29;;;;;;;14.30;3.42;;;12.60;63.60;;;;;;5004093;28;20063;-67
2023/05/27 04:57:56;;;;;;;12.95;3.95;;;12.60;63.70;;;;;;5036240;28;20025;-67
2023/05/27 05:00:38;;;;;;;12.63;3.65;;;12.70;63.70;;;;;;5016634;28;20429;-66
2023/05/27 05:03:08;;;;;;;11.25;3.63;;;12.70;63.70;;;;;;5031192;28;20037;-66
2023/05/27 05:05:35;;;;;;;10.90;3.60;;;12.80;63.80;;;;;;5024051;28;20025;-67
2023/05/27 05:08:01;;;;;;;11.95;3.45;;;12.80;63.60;;;;;;5035479;28;20073;-67
2023/05/27 05:10:30;;;;;;;13.05;3.63;;;12.90;64.30;;;;;;5022988;28;20447;-66
2023/05/27 05:12:56;;;;;;;13.00;3.50;;;12.90;63.60;;;;;;5034141;28;20513;-66
2023/05/27 05:15:22;;;;;;;11.27;3.45;;;13.00;63.50;;;;;;5033399;28;20025;-66
2023/05/27 05:17:49;;;;;;;13.57;3.25;;;13.10;63.40;;;;;;5028073;28;20170;-67
2023/05/27 05:20:16;;;;;;;12.35;3.72;;;13.20;63.30;;;;;;5013730;28;20049;-67
2023/05/27 05:22:41;;;;;;;9.35;3.17;;;13.30;63.30;;;;;;5018965;28;20025;-68
2023/05/27 05:25:08;;;;;;;12.82;3.38;;;13.40;63.20;;;;;;5033967;28;20034;-68
2023/05/27 05:27:38;;;;;;;11.45;3.17;;;13.50;63.10;;;;;;5019804;28;20026;-68
2023/05/27 05:30:05;;;;;;;11.60;3.78;;;13.60;63.00;;;;;;5027100;28;20032;-68
2023/05/27 05:32:31;;;;;;;13.43;3.20;;;13.60;62.80;;;;;;5031731;28;20028;-67
2023/05/27 05:34:57;;;;;;;11.95;3.47;;;13.80;62.60;;;;;;5033613;28;20350;-68
2023/05/27 05:37:23;;;;;;;12.73;3.72;;;13.90;62.50;;;;;;5019833;28;20087;-67
2023/05/27 05:39:50;;;;;;;10.15;3.75;;;14.00;62.40;;;;;;5030927;28;20408;-68
2023/05/27 05:42:17;;;;;;;12.18;3.70;;;14.10;62.40;;;;;;5034920;28;20080;-67
2023/05/27 05:44:42;;;;;;;17.48;4.13;;;14.10;62.20;;;;;;5033156;28;20571;-68
2023/05/27 05:47:08;;;;;;;11.65;3.72;;;14.20;62.10;;;;;;5036180;28;20055;-68
2023/05/27 05:49:35;;;;;;;12.80;3.90;;;14.30;62.10;;;;;;5016380;28;20370;-68
2023/05/27 05:52:01;;;;;;;9.48;3.67;;;14.50;61.90;;;;;;5032416;28;20052;-68
2023/05/27 05:54:28;;;;;;;10.15;3.17;;;14.60;61.80;;;;;;5034795;28;20342;-67
2023/05/27 05:56:56;;;;;;;9.93;2.88;;;14.60;61.60;;;;;;5051222;28;20029;-68
2023/05/27 05:59:22;;;;;;;12.77;3.65;;;14.70;61.50;;;;;;5034381;28;20124;-68
2023/05/27 06:01:48;;;;;;;14.00;3.50;;;14.80;61.40;;;;;;5018017;28;20059;-68
2023/05/27 06:04:13;;;;;;;18.50;4.50;;;14.90;61.20;;;;;;5034933;28;20037;-67
2023/05/27 06:06:43;;;;;;;11.07;3.20;;;15.00;61.00;;;;;;5017645;28;20022;-68
2023/05/27 06:09:28;;;;;;;11.00;3.30;;;15.00;60.90;;;;;;5018489;28;20029;-67
2023/05/27 06:11:57;;;;;;;9.55;2.85;;;15.10;60.70;;;;;;5032258;28;20068;-67
2023/05/27 06:14:24;;;;;;;14.82;3.47;;;15.20;60.70;;;;;;5034694;28;20364;-71
2023/05/27 06:16:52;;;;;;;20.23;3.97;;;15.30;60.60;;;;;;5027657;28;20423;-67
2023/05/27 06:19:17;;;;;;;11.13;3.67;;;15.40;60.30;;;;;;5014763;28;20045;-67
2023/05/27 06:21:43;;;;;;;11.02;3.60;;;15.60;60.10;;;;;;5030449;28;20033;-68
2023/05/27 06:24:44;;;;;;;11.67;4.20;;;15.70;60.00;;;;;;5011002;28;20124;-66
2023/05/27 06:27:16;;;;;;;11.50;3.17;;;15.80;59.80;;;;;;5020894;28;20057;-65
2023/05/27 06:29:44;;;;;;;16.05;3.97;;;16.00;59.50;;;;;;5032423;28;20093;-64
2023/05/27 06:32:11;;;;;;;13.02;4.13;;;16.10;59.20;;;;;;5013528;28;20022;-65
2023/05/27 06:34:37;;;;;;;12.70;3.97;;;16.20;59.10;;;;;;5029054;28;20331;-64
2023/05/27 06:37:03;;;;;;;15.07;4.22;;;16.30;58.90;;;;;;5026276;28;20025;-63
2023/05/27 06:39:29;;;;;;;14.45;3.83;;;16.40;58.70;;;;;;5019412;28;20516;-64
2023/05/27 06:41:54;;;;;;;15.43;4.10;;;16.40;58.40;;;;;;5033190;28;20048;-63
2023/05/27 06:44:38;;;;;;;16.48;3.92;;;16.50;58.90;;;;;;5034138;28;20040;-63
2023/05/27 06:47:24;;;;;;;11.02;3.58;;;16.60;58.20;;;;;;5017634;28;20030;-64
2023/05/27 06:49:50;;;;;;;16.88;4.13;;;16.70;58.00;;;;;;5029169;28;20021;-64
2023/05/27 06:52:16;;;;;;;9.13;2.75;;;16.90;57.90;;;;;;5028482;28;20528;-64
2023/05/27 06:55:00;;;;;;;17.00;4.07;;;17.00;58.20;;;;;;5029834;28;20357;-64
2023/05/27 06:57:45;;;;;;;11.88;3.58;;;17.20;57.30;;;;;;5025931;28;20088;-64
2023/05/27 07:00:17;;;;;;;13.68;4.03;;;17.30;57.10;;;;;;5029054;28;20025;-64
2023/05/27 07:03:00;;;;;;;12.27;3.47;;;17.40;56.80;;;;;;5026073;28;20052;-64
2023/05/27 07:05:26;;;;;;;10.23;4.10;;;17.60;56.60;;;;;;5029356;28;20082;-64
2023/05/27 07:07:52;;;;;;;11.73;4.07;;;17.70;56.30;;;;;;5024792;28;20498;-64
2023/05/27 07:10:18;;;;;;;11.45;3.83;;;17.80;56.10;;;;;;5015474;28;20028;-64
2023/05/27 07:12:44;;;;;;;13.88;3.85;;;17.90;55.90;;;;;;5008376;28;20030;-64
2023/05/27 07:15:32;;;;;;;15.23;3.80;;;18.10;55.70;;;;;;5020722;28;20034;-64
2023/05/27 07:17:58;;;;;;;15.55;3.85;;;18.20;55.30;;;;;;5030876;28;20098;-64
2023/05/27 07:20:24;;;;;;;11.85;4.18;;;18.30;55.20;;;;;;5023495;28;20442;-64
2023/05/27 07:22:50;;;;;;;13.85;4.10;;;18.50;55.00;;;;;;5028670;28;20104;-63
2023/05/27 07:25:16;;;;;;;12.75;3.88;;;18.60;54.70;;;;;;5027330;28;20021;-63
2023/05/27 07:27:42;;;;;;;10.48;3.45;;;18.70;54.40;;;;;;5021910;28;20040;-63
2023/05/27 07:30:08;;;;;;;12.48;3.58;;;18.80;54.20;;;;;;5021620;28;20121;-63
2023/05/27 07:32:45;;;;;;;12.15;4.07;;;18.90;54.00;;;;;;5025133;28;20458;-63
2023/05/27 07:35:11;;;;;;;10.45;3.80;;;19.10;53.70;;;;;;5031045;28;20103;-63
2023/05/27 07:37:37;;;;;;;12.68;4.40;;;19.20;53.60;;;;;;5027599;28;20450;-63
2023/05/27 07:40:04;;;;;;;10.88;3.92;;;19.30;53.20;;;;;;5015691;28;20040;-63
2023/05/27 07:42:36;;;;;;;10.23;3.83;;;19.40;52.90;;;;;;5033123;28;20029;-64
2023/05/27 07:45:03;;;;;;;16.70;4.82;;;19.50;52.70;;;;;;5031723;28;20336;-63
2023/05/27 07:47:29;;;;;;;12.45;3.97;;;19.60;52.60;;;;;;5032330;28;20052;-63
2023/05/27 07:49:55;;;;;;;13.23;3.60;;;19.70;52.40;;;;;;5028427;28;20033;-63
2023/05/27 07:52:40;;;;;;;10.90;4.20;;;19.80;52.40;;;;;;5033365;28;20104;-63
2023/05/27 07:55:19;;;;;;;11.43;3.92;;;19.80;52.10;;;;;;5031423;28;20465;-63
2023/05/27 07:57:44;;;;;;;13.02;4.13;;;20.00;52.00;;;;;;5021699;28;20033;-63
2023/05/27 08:00:12;;;;;;;10.15;3.28;;;20.10;51.60;;;;;;5032772;28;20356;-63
2023/05/27 08:02:53;;;;;;;11.20;4.00;;;20.20;51.50;;;;;;5033963;28;20025;-63
2023/05/27 08:05:23;;;;;;;12.38;4.22;;;20.30;51.30;;;;;;5031289;28;20025;-63
2023/05/27 08:08:18;;;;;;;14.40;4.38;;;20.40;51.10;;;;;;5017683;28;20041;-63
2023/05/27 08:11:02;;;;;;;11.15;3.40;;;20.50;51.00;;;;;;5020722;28;20077;-64
2023/05/27 08:13:46;;;;;;;13.23;3.78;;;20.50;50.80;;;;;;5033262;28;20378;-64
2023/05/27 08:16:27;;;;;;;11.68;3.35;;;20.60;50.60;;;;;;5028678;28;20025;-64
2023/05/27 08:19:22;;;;;;;11.82;4.28;;;20.80;50.50;;;;;;5007814;28;20491;-66
2023/05/27 08:21:52;;;;;;;14.63;3.93;;;20.90;50.30;;;;;;5017400;28;20116;-66
2023/05/27 08:24:49;;;;;;;11.45;3.72;;;21.00;50.10;;;;;;5015104;28;20105;-66
2023/05/27 08:28:01;;;;;;;10.63;3.53;;;21.00;49.90;;;;;;5016203;28;20034;-66
2023/05/27 08:30:50;;;;;;;10.80;4.10;;;21.00;49.70;;;;;;5023333;28;20519;-66
2023/05/27 08:33:21;;;;;;;11.80;4.20;;;21.10;49.60;;;;;;5032030;28;20029;-66
2023/05/27 08:35:47;;;;;;;9.88;3.85;;;21.20;49.50;;;;;;5015140;28;20030;-66
2023/05/27 08:38:13;;;;;;;16.00;4.82;;;21.20;49.30;;;;;;5029230;28;20103;-66
2023/05/27 08:40:40;;;;;;;10.43;4.20;;;21.30;49.90;;;;;;5022258;28;20405;-66
2023/05/27 08:43:06;;;;;;;11.13;4.10;;;21.40;49.20;;;;;;5026480;28;20037;-66
2023/05/27 08:45:40;;;;;;;11.10;4.28;;;21.60;49.20;;;;;;5028718;28;20354;-67
2023/05/27 08:48:08;;;;;;;13.20;4.10;;;21.70;49.00;;;;;;5026606;28;20458;-66
2023/05/27 08:50:37;;;;;;;11.27;4.18;;;21.90;48.60;;;;;;5028209;28;20520;-66
2023/05/27 08:53:03;;;;;;;9.93;3.78;;;21.90;48.60;;;;;;5026624;28;20022;-67
2023/05/27 08:55:31;;;;;;;11.48;4.55;;;21.90;48.40;;;;;;5025300;28;20087;-69
2023/05/27 08:57:58;;;;;;;11.25;4.53;;;22.10;48.70;;;;;;5027668;28;20026;-69
2023/05/27 09:00:27;;;;;;;12.50;4.28;;;22.10;47.90;;;;;;5019530;28;20030;-69
2023/05/27 09:02:59;;;;;;;14.63;4.45;;;22.30;47.80;;;;;;5015739;28;20037;-69
2023/05/27 09:05:29;;;;;;;11.35;4.00;;;22.30;47.50;;;;;;5006138;28;20045;-69
2023/05/27 09:07:55;;;;;;;10.73;3.80;;;22.40;47.40;;;;;;5032406;28;20029;-69
2023/05/27 09:10:21;;;;;;;11.95;4.05;;;22.50;47.20;;;;;;5018748;28;20030;-68
2023/05/27 09:12:47;;;;;;;16.27;5.15;;;22.60;47.20;;;;;;5029170;28;20020;-68
2023/05/27 09:15:13;;;;;;;11.70;4.38;;;22.70;47.10;;;;;;5021121;28;20034;-68
2023/05/27 09:17:43;;;;;;;10.90;4.40;;;22.70;47.00;;;;;;5030939;28;20021;-68
2023/05/27 09:20:11;;;;;;;13.67;4.67;;;22.80;46.80;;;;;;5031049;28;20043;-68
2023/05/27 09:22:38;;;;;;;10.60;4.20;;;22.90;46.70;;;;;;5036337;28;20048;-70
2023/05/27 09:25:05;;;;;;;11.20;4.72;;;23.00;46.80;;;;;;5034948;28;20361;-69
2023/05/27 09:27:31;;;;;;;13.07;4.15;;;23.10;46.50;;;;;;5030376;28;20100;-68
2023/05/27 09:30:06;;;;;;;12.18;4.70;;;23.10;46.20;;;;;;5034199;28;20037;-67
2023/05/27 09:32:32;;;;;;;13.52;4.35;;;23.10;46.00;;;;;;5030944;28;20034;-70
2023/05/27 09:35:00;;;;;;;10.23;4.22;;;23.10;46.00;;;;;;5033993;28;20029;-69
2023/05/27 09:37:31;;;;;;;10.95;4.43;;;23.20;46.10;;;;;;5036927;28;20463;-68
2023/05/27 09:40:05;;;;;;;14.88;5.05;;;23.20;46.00;;;;;;5022899;28;20311;-67
2023/05/27 09:42:45;;;;;;;10.15;4.43;;;23.20;45.90;;;;;;5024524;28;20082;-68
2023/05/27 09:45:18;;;;;;;12.57;4.45;;;23.30;45.70;;;;;;5026421;28;20084;-69
2023/05/27 09:47:49;;;;;;;12.00;4.57;;;23.30;46.20;;;;;;5025311;28;20064;-67
2023/05/27 09:50:16;;;;;;;11.05;4.15;;;23.40;45.60;;;;;;5023867;28;20029;-68
2023/05/27 09:52:43;;;;;;;10.20;4.15;;;23.60;45.70;;;;;;5023396;28;21437;-69
2023/05/27 09:55:12;;;;;;;10.93;4.38;;;23.70;45.40;;;;;;5023423;28;20022;-67
2023/05/27 09:57:39;;;;;;;16.08;4.13;;;23.80;45.20;;;;;;5028437;28;20368;-71
2023/05/27 10:00:17;;;;;;;13.10;4.35;;;23.80;44.80;;;;;;5029826;28;20041;-71
2023/05/27 10:02:46;;;;;;;11.15;4.28;;;23.80;44.50;;;;;;5032715;28;20049;-70
2023/05/27 10:05:13;;;;;;;9.07;3.60;;;23.80;44.40;;;;;;5023433;28;20064;-69
2023/05/27 10:07:41;;;;;;;9.98;4.05;;;23.90;44.50;;;;;;5033772;28;20120;-70
2023/05/27 10:10:16;;;;;;;10.93;4.30;;;24.00;44.30;;;;;;5032196;28;20021;-69
2023/05/27 10:12:47;;;;;;;11.52;3.90;;;24.10;44.00;;;;;;5022469;28;20033;-69
2023/05/27 10:15:28;;;;;;;14.15;4.68;;;24.20;43.80;;;;;;5021648;28;20022;-69
2023/05/27 10:18:13;;;;;;;11.70;4.30;;;24.20;43.70;;;;;;5027745;28;20044;-73
2023/05/27 10:20:42;;;;;;;11.05;4.18;;;24.30;43.60;;;;;;5032199;28;20083;-78
2023/05/27 10:23:21;;;;;;;12.85;4.53;;;24.40;43.50;;;;;;5008655;28;20234;-67
2023/05/27 10:25:55;;;;;;;10.00;3.45;;;24.50;43.20;;;;;;5017435;28;20030;-67
2023/05/27 10:28:27;;;;;;;12.85;3.70;;;24.50;43.00;;;;;;5023162;28;20056;-68
2023/05/27 10:31:03;;;;;;;12.18;3.83;;;24.60;43.10;;;;;;5030994;28;20400;-68
2023/05/27 10:33:34;;;;;;;10.80;4.28;;;24.60;42.90;;;;;;5024311;28;20120;-68
2023/05/27 10:36:22;;;;;;;10.48;4.07;;;24.70;42.50;;;;;;5017132;28;20029;-68
2023/05/27 10:39:11;;;;;;;10.23;3.50;;;24.70;42.10;;;;;;5029495;28;20155;-67
2023/05/27 10:41:49;;;;;;;12.27;3.63;;;24.80;42.10;;;;;;5027908;28;20072;-67
2023/05/27 10:44:32;;;;;;;12.63;4.50;;;24.90;42.00;;;;;;5023432;28;20040;-67
2023/05/27 10:47:19;;;;;;;13.27;3.47;;;24.90;42.00;;;;;;5029945;28;20026;-67
2023/05/27 10:49:47;;;;;;;10.35;3.63;;;25.00;42.10;;;;;;5031141;28;20034;-67
2023/05/27 10:52:15;;;;;;;13.38;4.00;;;25.00;42.20;;;;;;5032639;28;20116;-67
2023/05/27 10:54:46;;;;;;;10.90;3.88;;;25.00;42.00;;;;;;5032396;28;20017;-67
2023/05/27 10:57:13;;;;;;;11.68;3.80;;;25.10;41.60;;;;;;5032639;28;20065;-67
2023/05/27 10:59:49;;;;;;;11.63;4.03;;;25.10;41.70;;;;;;5032608;28;20044;-67
2023/05/27 11:02:16;;;;;;;10.57;4.07;;;25.10;41.30;;;;;;5014784;28;20374;-67
2023/05/27 11:04:42;;;;;;;11.80;4.05;;;25.10;41.40;;;;;;5033222;28;20169;-68
2023/05/27 11:07:08;;;;;;;12.20;4.13;;;25.10;41.40;;;;;;5032997;28;20112;-67
2023/05/27 11:09:45;;;;;;;12.43;3.88;;;25.00;41.20;;;;;;5031954;28;20030;-67
2023/05/27 11:12:18;;;;;;;11.48;3.67;;;24.90;41.10;;;;;;5032917;28;20067;-67
2023/05/27 11:14:46;;;;;;;9.55;3.35;;;24.90;40.90;;;;;;5032138;28;20025;-67
2023/05/27 11:17:13;;;;;;;9.50;3.60;;;24.90;40.70;;;;;;5027786;28;20048;-67
2023/05/27 11:19:40;;;;;;;10.55;3.75;;;24.90;40.50;;;;;;5028932;28;20112;-67
2023/05/27 11:22:09;;;;;;;12.18;3.95;;;24.90;40.30;;;;;;5033605;28;20423;-69
2023/05/27 11:24:39;;;;;;;8.52;3.58;;;24.90;40.30;;;;;;5029267;28;20403;-68
2023/05/27 11:27:14;;;;;;;10.10;4.07;;;24.90;40.30;;;;;;5026562;28;20037;-68
2023/05/27 11:29:53;;;;;;;9.95;3.75;;;25.00;40.50;;;;;;5031880;28;20013;-68
2023/05/27 11:32:20;;;;;;;11.60;4.07;;;25.00;40.40;;;;;;5030927;28;20029;-68
2023/05/27 11:34:46;;;;;;;7.78;3.05;;;25.10;40.10;;;;;;5025821;28;20026;-69
2023/05/27 11:37:15;;;;;;;10.20;3.75;;;25.10;39.80;;;;;;5031489;28;20025;-72
2023/05/27 11:39:53;;;;;;;11.77;4.43;;;25.10;39.80;;;;;;5030024;28;20103;-68
2023/05/27 11:42:23;;;;;;;15.60;4.45;;;25.10;39.80;;;;;;5024111;28;20053;-69
2023/05/27 11:44:54;;;;;;;10.27;3.42;;;25.00;40.10;;;;;;5022703;28;20048;-67
2023/05/27 11:47:21;;;;;;;10.65;3.72;;;24.90;40.20;;;;;;5019515;28;20496;-67
2023/05/27 11:49:49;;;;;;;8.60;3.38;;;24.90;40.30;;;;;;5024120;28;20043;-68
2023/05/27 11:52:15;;;;;;;8.95;3.50;;;24.90;40.60;;;;;;5033313;28;20068;-67
2023/05/27 11:54:41;;;;;;;8.35;3.20;;;24.80;40.20;;;;;;5023187;28;20060;-68
2023/05/27 11:57:07;;;;;;;10.32;3.78;;;24.70;40.10;;;;;;5033960;28;20030;-67
2023/05/27 11:59:34;;;;;;;13.60;4.28;;;24.70;40.20;;;;;;5031300;28;20029;-66
2023/05/27 12:02:00;;;;;;;12.18;4.25;;;24.60;40.10;;;;;;5031871;28;20039;-67
2023/05/27 12:04:26;;;;;;;9.05;3.25;;;24.60;40.30;;;;;;5025453;28;20112;-69
2023/05/27 12:06:52;;;;;;;9.95;3.45;;;24.50;40.40;;;;;;5028465;28;20025;-69
2023/05/27 12:09:17;;;;;;;11.32;3.25;;;24.60;40.30;;;;;;5031768;28;20508;-70
2023/05/27 12:11:43;;;;;;;9.02;3.75;;;24.50;40.30;;;;;;5030123;28;20033;-69
2023/05/27 12:14:09;;;;;;;9.32;3.45;;;24.50;40.40;;;;;;5032345;28;20026;-70
2023/05/27 12:16:35;;;;;;;8.93;3.53;;;24.40;40.10;;;;;;5030272;28;20295;-71
2023/05/27 12:19:01;;;;;;;10.32;4.18;;;24.30;40.10;;;;;;5020045;28;20387;-69
2023/05/27 12:21:27;;;;;;;9.70;3.40;;;24.30;40.20;;;;;;5031870;28;20112;-70
2023/05/27 12:23:53;;;;;;;12.43;3.85;;;24.20;40.10;;;;;;5033261;28;20091;-67
2023/05/27 12:26:20;;;;;;;11.55;3.80;;;24.10;40.00;;;;;;5026636;28;20037;-68
2023/05/27 12:28:46;;;;;;;8.82;3.80;;;24.00;40.00;;;;;;5022025;28;20034;-69
2023/05/27 12:31:11;;;;;;;13.05;4.20;;;24.00;40.10;;;;;;5026189;28;20109;-70
2023/05/27 12:33:37;;;;;;;11.90;3.90;;;23.90;40.30;;;;;;5020887;28;20030;-68
2023/05/27 12:36:06;;;;;;;10.00;3.33;;;23.90;40.60;;;;;;5026982;28;20030;-69
2023/05/27 12:38:33;;;;;;;14.48;3.85;;;23.80;40.70;;;;;;5022130;28;20128;-68
2023/05/27 12:40:59;;;;;;;10.82;4.22;;;23.70;40.50;;;;;;5021164;28;20033;-71
2023/05/27 12:43:25;;;;;;;10.20;3.38;;;23.70;40.80;;;;;;5016076;28;20059;-70
2023/05/27 12:45:51;;;;;;;10.35;3.72;;;23.70;41.00;;;;;;5008220;28;20021;-70
2023/05/27 12:48:17;;;;;;;9.25;3.15;;;23.60;40.90;;;;;;5016555;28;20051;-69